createdAt,value
2018-09-17T00:02:33.543Z,1090.94
2018-09-17T00:02:46.219Z,1090.49
2018-09-17T00:03:46.212Z,1090.21
2018-09-17T00:04:46.200Z,1090.13
2018-09-17T00:05:46.194Z,1090.01
2018-09-17T00:06:46.210Z,1090.13
2018-09-17T00:07:46.218Z,1090.2
2018-09-17T00:08:46.218Z,1090.4
2018-09-17T00:09:46.242Z,1090.55
2018-09-17T00:10:46.225Z,1090.47
2018-09-17T00:11:46.232Z,1090.57
2018-09-17T00:12:46.213Z,1090.49
2018-09-17T00:13:46.216Z,1090.54
2018-09-17T00:14:46.215Z,1090.63
2018-09-17T00:15:46.201Z,1090.54
2018-09-17T00:16:46.261Z,1090.41
2018-09-17T00:17:46.223Z,1090.28
2018-09-17T00:18:46.227Z,1090.02
2018-09-17T00:19:46.218Z,1090.04
2018-09-17T00:20:46.265Z,1089.68
2018-09-17T00:21:46.226Z,1089.77
2018-09-17T00:22:46.218Z,1089.51
2018-09-17T00:23:46.212Z,1089.32
2018-09-17T00:24:46.226Z,1089.11
2018-09-17T00:25:46.240Z,1088.69
2018-09-17T00:26:46.230Z,1088.58
2018-09-17T00:27:46.239Z,1088.51
2018-09-17T00:28:46.278Z,1088.06
2018-09-17T00:29:46.228Z,1087.9
2018-09-17T00:30:46.260Z,1087.46
2018-09-17T00:31:46.242Z,1087.09
2018-09-17T00:32:46.240Z,1086.8
2018-09-17T00:33:46.272Z,1086.12
2018-09-17T00:44:45.184Z,1083.32
2018-09-17T00:45:45.121Z,1082.99
2018-09-17T00:46:45.111Z,1082.73
2018-09-17T00:47:45.110Z,1082.75
2018-09-17T00:48:45.117Z,1082.67
2018-09-17T00:49:45.118Z,1082.72
2018-09-17T00:50:45.130Z,1082.27
2018-09-17T00:51:45.116Z,1081.7
2018-09-17T00:52:45.116Z,1081.73
2018-09-17T00:53:45.118Z,1081.65
2018-09-17T00:54:45.124Z,1081.64
2018-09-17T00:55:45.130Z,1081.56
2018-09-17T00:56:45.148Z,1081.36
2018-09-17T00:57:45.217Z,1081
2018-09-17T00:58:45.138Z,1080.54
2018-09-17T00:59:45.157Z,1080.33
2018-09-17T01:00:45.132Z,1080.09
2018-09-17T01:01:45.143Z,1079.71
2018-09-17T01:02:45.235Z,1079.81
2018-09-17T01:03:45.173Z,1079.38
2018-09-17T01:04:45.181Z,1079.39
2018-09-17T01:05:45.178Z,1078.93
2018-09-17T01:06:45.153Z,1078.25
2018-09-17T01:07:45.149Z,1078.18
2018-09-17T01:08:45.163Z,1077.98
2018-09-17T01:09:45.156Z,1078
2018-09-17T01:10:45.154Z,1077.57
2018-09-17T01:11:45.214Z,1077.76
2018-09-17T01:12:45.181Z,1077.14
2018-09-17T01:13:45.176Z,1076.99
2018-09-17T01:14:45.171Z,1076.63
2018-09-17T01:15:45.233Z,1076.7
2018-09-17T01:16:45.227Z,1076.6
2018-09-17T01:17:45.264Z,1076.28
2018-09-17T01:18:45.269Z,1076.16
2018-09-17T01:19:45.281Z,1075.82
2018-09-17T01:20:45.191Z,1075.45
2018-09-17T01:21:45.187Z,1074.85
2018-09-17T01:22:45.173Z,1074.85
2018-09-17T01:23:45.195Z,1074.44
2018-09-17T01:24:45.187Z,1074.47
2018-09-17T01:25:45.214Z,1074.18
2018-09-17T01:26:45.166Z,1074.74
2018-09-17T01:27:45.200Z,1074.31
2018-09-17T01:28:45.199Z,1074.33
2018-09-17T01:29:45.187Z,1074.48
2018-09-17T01:30:45.186Z,1074.79
2018-09-17T01:31:45.194Z,1074.64
2018-09-17T01:32:45.224Z,1074.85
2018-09-17T01:33:45.209Z,1075.01
2018-09-17T01:34:45.216Z,1075.04
2018-09-17T01:35:45.192Z,1075.3
2018-09-17T01:36:45.193Z,1075.26
2018-09-17T01:37:45.198Z,1075.06
2018-09-17T01:38:45.211Z,1075.16
2018-09-17T01:39:45.219Z,1075.09
2018-09-17T01:54:58.254Z,1073.84
2018-09-17T01:55:10.577Z,1071.88
2018-09-17T01:56:10.539Z,1071.85
2018-09-17T01:57:10.538Z,1071.53
2018-09-17T01:58:10.577Z,1071.35
2018-09-17T01:59:10.590Z,1070.84
2018-09-17T02:00:10.569Z,1070.7
2018-09-17T02:01:10.574Z,1070.74
2018-09-17T02:02:10.547Z,1070.58
2018-09-17T02:03:10.588Z,1070.56
2018-09-17T02:04:10.559Z,1070.34
2018-09-17T02:05:10.568Z,1070.41
2018-09-17T02:06:10.573Z,1070.25
2018-09-17T02:07:10.612Z,1070.5
2018-09-17T02:08:10.596Z,1070.62
2018-09-17T02:09:10.679Z,1070.21
2018-09-17T02:10:10.602Z,1070.16
2018-09-17T02:11:10.594Z,1069.79
2018-09-17T02:12:10.606Z,1069.22
2018-09-17T02:13:10.609Z,1068.98
2018-09-17T02:14:10.596Z,1068.72
2018-09-17T02:15:10.603Z,1068.7
2018-09-17T02:16:10.601Z,1068.66
2018-09-17T02:17:10.583Z,1068.6
2018-09-17T02:18:10.579Z,1068.58
2018-09-17T02:19:10.586Z,1068.54
2018-09-17T02:20:10.621Z,1068.83
2018-09-17T02:21:10.575Z,1068.36
2018-09-17T02:22:10.614Z,1068.14
2018-09-17T02:23:10.586Z,1068.18
2018-09-17T02:24:10.628Z,1068.45
2018-09-17T02:25:10.604Z,1068.37
2018-09-17T02:26:10.605Z,1068.6
2018-09-17T02:27:10.608Z,1068.83
2018-09-17T02:28:10.603Z,1069.16
2018-09-17T02:29:10.613Z,1069.31
2018-09-17T02:30:10.635Z,1069.14
2018-09-17T02:31:10.597Z,1069.02
2018-09-17T02:32:10.624Z,1069.11
2018-09-17T02:33:10.622Z,1068.99
2018-09-17T02:34:10.613Z,1068.95
2018-09-17T02:35:10.638Z,1068.8
2018-09-17T02:36:10.617Z,1068.96
2018-09-17T02:37:10.644Z,1068.93
2018-09-17T02:38:10.712Z,1069.13
2018-09-17T02:46:58.554Z,1068.56
2018-09-17T02:47:58.550Z,1068.7
2018-09-17T02:48:58.555Z,1068.36
2018-09-17T02:49:58.564Z,1067.83
2018-09-17T02:50:58.542Z,1067.81
2018-09-17T02:51:58.586Z,1067.77
2018-09-17T02:52:58.558Z,1067.71
2018-09-17T02:53:58.574Z,1067.74
2018-09-17T02:54:58.578Z,1067.83
2018-09-17T02:55:58.550Z,1067.82
2018-09-17T02:56:58.576Z,1067.88
2018-09-17T02:57:58.595Z,1067.89
2018-09-17T02:58:58.596Z,1067.63
2018-09-17T02:59:58.584Z,1067.65
2018-09-17T03:00:58.570Z,1067.52
2018-09-17T03:01:58.568Z,1067.46
2018-09-17T03:02:58.561Z,1067.69
2018-09-17T03:03:58.599Z,1067.43
2018-09-17T03:04:58.571Z,1067.46
2018-09-17T03:05:58.567Z,1067.42
2018-09-17T03:06:58.576Z,1067.66
2018-09-17T03:07:58.586Z,1067.51
2018-09-17T03:08:58.636Z,1067.4
2018-09-17T03:09:58.661Z,1067.31
2018-09-17T03:10:58.647Z,1067.25
2018-09-17T03:11:58.635Z,1067.31
2018-09-17T03:12:58.647Z,1067.2
2018-09-17T03:13:58.666Z,1066.97
2018-09-17T03:14:58.927Z,1067.24
2018-09-17T03:15:58.607Z,1067.22
2018-09-17T03:16:58.604Z,1067.19
2018-09-17T03:17:58.592Z,1067.55
2018-09-17T03:18:58.616Z,1067.31
2018-09-17T03:19:58.584Z,1066.93
2018-09-17T03:20:58.705Z,1066.94
2018-09-17T03:21:58.613Z,1066.59
2018-09-17T03:22:58.678Z,1066.38
2018-09-17T03:23:58.602Z,1065.81
2018-09-17T03:24:59.021Z,1065.27
2018-09-17T03:25:58.610Z,1064.65
2018-09-17T03:26:58.682Z,1064.1
2018-09-17T03:27:58.636Z,1063.65
2018-09-17T03:28:58.628Z,1063.64
2018-09-17T03:29:58.698Z,1063.38
2018-09-17T03:30:58.611Z,1063.07
2018-09-17T03:31:58.643Z,1063.05
2018-09-17T03:32:58.617Z,1062.93
2018-09-17T03:33:58.860Z,1062.79
2018-09-17T03:34:58.625Z,1062.91
2018-09-17T03:35:58.640Z,1063.06
2018-09-17T03:36:58.690Z,1063.08
2018-09-17T03:37:58.634Z,1063.37
2018-09-17T03:38:58.741Z,1063.23
2018-09-17T03:39:58.652Z,1063.62
2018-09-17T03:40:58.708Z,1063.36
2018-09-17T03:42:58.653Z,1063.33
2018-09-17T03:43:58.607Z,1063.7
2018-09-17T03:44:58.698Z,1063.47
2018-09-17T03:45:58.638Z,1063.54
2018-09-17T03:46:58.661Z,1063.33
2018-09-17T03:47:58.653Z,1062.89
2018-09-17T03:48:58.653Z,1062.87
2018-09-17T03:49:58.651Z,1062.38
2018-09-17T03:50:58.701Z,1062.62
2018-09-17T03:51:58.673Z,1062.03
2018-09-17T03:52:58.747Z,1061.62
2018-09-17T03:53:58.710Z,1061.2
2018-09-17T03:54:58.654Z,1061.09
2018-09-17T03:55:58.710Z,1060.77
2018-09-17T03:56:58.734Z,1060.82
2018-09-17T03:57:58.776Z,1060.25
2018-09-17T03:58:58.788Z,1060.22
2018-09-17T03:59:58.740Z,1060.22
2018-09-17T04:00:58.732Z,1060.15
2018-09-17T04:01:58.693Z,1060.02
2018-09-17T04:02:58.704Z,1059.86
2018-09-17T04:03:58.682Z,1059.9
2018-09-17T04:05:15.540Z,1059.81
2018-09-17T04:06:15.512Z,1059.91
2018-09-17T04:07:15.560Z,1059.9
2018-09-17T04:08:15.540Z,1059.71
2018-09-17T04:09:15.536Z,1059.31
2018-09-17T04:10:15.556Z,1059.03
2018-09-17T04:11:15.548Z,1059
2018-09-17T04:12:15.553Z,1059.02
2018-09-17T04:13:15.558Z,1059.04
2018-09-17T04:14:15.569Z,1059.14
2018-09-17T04:15:15.550Z,1059.14
2018-09-17T04:16:15.556Z,1059.18
2018-09-17T04:17:15.551Z,1059.05
2018-09-17T04:18:15.570Z,1058.83
2018-09-17T04:19:15.534Z,1059.13
2018-09-17T04:20:15.548Z,1058.79
2018-09-17T04:21:15.571Z,1058.87
2018-09-17T04:22:15.541Z,1058.81
2018-09-17T04:23:15.572Z,1058.74
2018-09-17T04:24:15.542Z,1059.19
2018-09-17T04:25:15.558Z,1058.87
2018-09-17T04:26:15.572Z,1058.45
2018-09-17T04:27:15.688Z,1058.16
2018-09-17T04:28:15.564Z,1057.93
2018-09-17T04:29:15.638Z,1057.74
2018-09-17T04:30:15.568Z,1057.67
2018-09-17T04:31:15.543Z,1057.63
2018-09-17T04:32:15.676Z,1057.41
2018-09-17T04:33:15.595Z,1056.96
2018-09-17T04:34:15.559Z,1056.64
2018-09-17T04:35:15.594Z,1056.09
2018-09-17T04:36:15.570Z,1055.72
2018-09-17T04:37:15.709Z,1055.2
2018-09-17T04:46:05.434Z,1054.53
2018-09-17T04:47:05.438Z,1054.25
2018-09-17T04:48:05.418Z,1054.32
2018-09-17T04:49:05.394Z,1054.35
2018-09-17T04:50:05.438Z,1054.19
2018-09-17T04:51:05.425Z,1054.2
2018-09-17T04:52:05.415Z,1053.95
2018-09-17T04:53:05.410Z,1053.88
2018-09-17T04:54:05.455Z,1053.61
2018-09-17T04:55:05.506Z,1053.3
2018-09-17T04:56:05.444Z,1053.11
2018-09-17T04:57:05.460Z,1053.29
2018-09-17T04:58:05.424Z,1053.59
2018-09-17T04:59:05.737Z,1053.38
2018-09-17T05:00:06.034Z,1053.62
2018-09-17T05:01:05.524Z,1053.68
2018-09-17T05:02:05.498Z,1053.78
2018-09-17T05:03:05.537Z,1053.56
2018-09-17T05:04:05.531Z,1053.46
2018-09-17T05:05:05.487Z,1053.22
2018-09-17T05:06:05.467Z,1053.19
2018-09-17T05:07:05.499Z,1053.35
2018-09-17T05:08:05.516Z,1053.04
2018-09-17T05:09:05.425Z,1053.01
2018-09-17T05:10:05.558Z,1052.9
2018-09-17T05:11:05.443Z,1052.62
2018-09-17T05:12:05.500Z,1052.55
2018-09-17T05:13:05.523Z,1052.7
2018-09-17T05:14:05.483Z,1052.44
2018-09-17T05:15:05.516Z,1051.87
2018-09-17T05:16:05.457Z,1051.61
2018-09-17T05:17:05.444Z,1051.39
2018-09-17T05:18:05.449Z,1051.21
2018-09-17T05:19:05.539Z,1050.97
2018-09-17T05:20:05.521Z,1050.91
2018-09-17T05:21:05.474Z,1050
2018-09-17T05:22:05.495Z,1049.65
2018-09-17T05:23:05.476Z,1049.3
2018-09-17T05:24:05.479Z,1048.44
2018-09-17T05:25:05.511Z,1048.05
2018-09-17T05:26:05.470Z,1047.48
2018-09-17T05:27:05.490Z,1046.9
2018-09-17T05:28:05.604Z,1046.55
2018-09-17T05:29:05.485Z,1046.25
2018-09-17T05:30:05.516Z,1046.28
2018-09-17T05:31:05.483Z,1046.34
2018-09-17T05:32:05.497Z,1046.25
2018-09-17T05:33:05.505Z,1046.12
2018-09-17T05:34:05.548Z,1046.52
2018-09-17T05:35:05.632Z,1046.75
2018-09-17T05:36:05.504Z,1047.05
2018-09-17T05:37:05.600Z,1047.48
2018-09-17T05:38:05.551Z,1047.65
2018-09-17T05:39:05.523Z,1048.03
2018-09-17T05:40:05.609Z,1048.27
2018-09-17T05:41:05.495Z,1048.55
2018-09-17T05:42:05.501Z,1049.09
2018-09-17T05:43:05.508Z,1049.44
2018-09-17T05:44:05.511Z,1049.71
2018-09-17T05:45:05.572Z,1050.59
2018-09-17T05:46:05.525Z,1051
2018-09-17T05:47:05.553Z,1051.44
2018-09-17T05:48:05.512Z,1052.04
2018-09-17T05:49:05.501Z,1052.71
2018-09-17T05:50:05.585Z,1053.38
2018-09-17T05:51:05.518Z,1054.27
2018-09-17T05:52:05.557Z,1055.14
2018-09-17T05:53:05.531Z,1056.15
2018-09-17T05:54:05.586Z,1057.06
2018-09-17T05:55:05.631Z,1058.12
2018-09-17T05:56:05.521Z,1059.04
2018-09-17T05:57:05.538Z,1059.65
2018-09-17T05:58:05.530Z,1060.79
2018-09-17T05:59:05.548Z,1061.34
2018-09-17T06:00:05.641Z,1062.2
2018-09-17T06:01:05.565Z,1063.11
2018-09-17T06:02:05.537Z,1063.65
2018-09-17T06:03:05.558Z,1064.51
2018-09-17T06:04:05.577Z,1065.33
2018-09-17T06:05:05.663Z,1066.01
2018-09-17T06:06:05.591Z,1066.73
2018-09-17T06:07:05.536Z,1067.7
2018-09-17T06:08:05.559Z,1068.58
2018-09-17T06:09:05.567Z,1070.19
2018-09-17T06:10:05.551Z,1071.37
2018-09-17T06:11:05.573Z,1072.54
2018-09-17T06:12:05.564Z,1073.98
2018-09-17T06:13:05.560Z,1075.22
2018-09-17T06:14:05.566Z,1076.68
2018-09-17T06:15:05.561Z,1078.57
2018-09-17T06:16:05.559Z,1080.17
2018-09-17T06:17:06.825Z,1082.26
2018-09-17T06:18:05.558Z,1084.9
2018-09-17T06:19:05.567Z,1087.91
2018-09-17T06:20:05.611Z,1090.43
2018-09-17T06:21:05.571Z,1092.93
2018-09-17T06:22:05.563Z,1095.62
2018-09-17T06:23:05.571Z,1098.23
2018-09-17T06:24:05.657Z,1100.9
2018-09-17T06:25:05.605Z,1103.43
2018-09-17T06:26:05.579Z,1106.13
2018-09-17T06:27:05.561Z,1108.45
2018-09-17T06:28:05.591Z,1110.29
2018-09-17T06:29:05.573Z,1112.03
2018-09-17T06:30:05.639Z,1113.33
2018-09-17T06:31:05.568Z,1114.71
2018-09-17T06:32:05.623Z,1116.2
2018-09-17T06:33:05.572Z,1118.04
2018-09-17T06:34:05.586Z,1119.59
2018-09-17T06:35:05.593Z,1121.4
2018-09-17T06:36:05.594Z,1123.08
2018-09-17T06:37:05.583Z,1124.61
2018-09-17T06:38:05.633Z,1126.15
2018-09-17T06:39:05.619Z,1127.3
2018-09-17T06:40:05.787Z,1128.75
2018-09-17T06:41:05.581Z,1129.92
2018-09-17T06:42:05.603Z,1130.92
2018-09-17T06:43:05.610Z,1131.95
2018-09-17T06:44:05.598Z,1132.97
2018-09-17T06:45:05.609Z,1133.8
2018-09-17T06:46:05.604Z,1134.46
2018-09-17T06:47:05.660Z,1135.19
2018-09-17T06:48:05.636Z,1135.79
2018-09-17T06:49:05.654Z,1136.23
2018-09-17T06:50:05.656Z,1136.59
2018-09-17T06:51:05.617Z,1136.89
2018-09-17T06:52:05.623Z,1137.21
2018-09-17T06:53:05.622Z,1137.42
2018-09-17T06:54:05.624Z,1137.54
2018-09-17T06:55:05.627Z,1137.52
2018-09-17T06:56:05.636Z,1137.49
2018-09-17T06:57:05.611Z,1137.33
2018-09-17T06:58:05.630Z,1137.17
2018-09-17T06:59:05.638Z,1136.95
2018-09-17T07:00:05.639Z,1136.71
2018-09-17T07:01:05.627Z,1136.35
2018-09-17T07:07:45.682Z,1133.17
2018-09-17T07:08:45.756Z,1132.48
2018-09-17T07:09:45.693Z,1131.7
2018-09-17T07:10:45.662Z,1131
2018-09-17T07:11:45.736Z,1130.12
2018-09-17T07:12:45.645Z,1129.4
2018-09-17T07:13:45.666Z,1128.55
2018-09-17T07:14:45.684Z,1127.6
2018-09-17T07:15:45.662Z,1126.6
2018-09-17T07:16:45.753Z,1125.58
2018-09-17T07:17:45.653Z,1124.57
2018-09-17T07:18:45.740Z,1123.33
2018-09-17T07:19:45.731Z,1122.13
2018-09-17T07:20:45.705Z,1120.83
2018-09-17T07:21:45.794Z,1119.4
2018-09-17T07:22:45.672Z,1118.02
2018-09-17T07:23:45.726Z,1116.88
2018-09-17T07:24:45.654Z,1115.96
2018-09-17T07:25:45.740Z,1115.06
2018-09-17T07:26:45.674Z,1113.53
2018-09-17T07:27:45.687Z,1112.12
2018-09-17T07:28:45.755Z,1110.8
2018-09-17T07:29:45.680Z,1109.56
2018-09-17T07:30:45.779Z,1108.39
2018-09-17T07:31:45.691Z,1107.13
2018-09-17T07:32:45.705Z,1106.21
2018-09-17T07:33:45.690Z,1105.12
2018-09-17T07:34:45.693Z,1103.72
2018-09-17T07:35:45.776Z,1102.55
2018-09-17T07:36:45.669Z,1101.17
2018-09-17T07:37:45.766Z,1099.81
2018-09-17T07:38:45.682Z,1098.12
2018-09-17T07:39:45.700Z,1096.72
2018-09-17T07:40:45.711Z,1094.86
2018-09-17T07:41:45.702Z,1093.02
2018-09-17T07:42:45.772Z,1090.98
2018-09-17T07:43:45.778Z,1088.8
2018-09-17T07:44:45.705Z,1086.9
2018-09-17T07:45:45.715Z,1085.04
2018-09-17T07:46:45.719Z,1083.31
2018-09-17T07:47:45.771Z,1081.81
2018-09-17T07:48:45.698Z,1080.1
2018-09-17T07:49:45.780Z,1078.56
2018-09-17T07:50:45.715Z,1077.3
2018-09-17T07:51:45.706Z,1075.92
2018-09-17T07:52:45.713Z,1074.78
2018-09-17T07:53:45.716Z,1073.42
2018-09-17T07:54:45.738Z,1072.56
2018-09-17T07:55:45.731Z,1071.17
2018-09-17T07:56:45.754Z,1069.58
2018-09-17T07:57:45.754Z,1067.86
2018-09-17T07:58:45.737Z,1065.84
2018-09-17T07:59:45.736Z,1063.64
2018-09-17T08:00:45.746Z,1061.74
2018-09-17T08:01:45.717Z,1059.29
2018-09-17T08:02:45.725Z,1057.13
2018-09-17T08:03:45.748Z,1054.43
2018-09-17T08:04:45.741Z,1052.05
2018-09-17T08:05:45.808Z,1049.74
2018-09-17T08:06:46.058Z,1047.47
2018-09-17T08:07:45.724Z,1045.35
2018-09-17T08:08:45.739Z,1043.55
2018-09-17T08:09:46.192Z,1042.28
2018-09-17T08:10:45.814Z,1040.6
2018-09-17T08:11:46.073Z,1038.64
2018-09-17T08:12:46.070Z,1036.69
2018-09-17T08:13:46.038Z,1034.88
2018-09-17T08:14:45.732Z,1032.49
2018-09-17T08:15:45.776Z,1030.08
2018-09-17T08:16:45.766Z,1027.45
2018-09-17T08:17:45.874Z,1024.35
2018-09-17T08:18:45.746Z,1021.37
2018-09-17T08:19:45.777Z,1018.67
2018-09-17T08:20:46.122Z,1015.8
2018-09-17T08:21:46.305Z,1013.53
2018-09-17T08:22:46.129Z,1010.92
2018-09-17T08:23:45.793Z,1008.8
2018-09-17T08:24:45.830Z,1006.45
2018-09-17T08:25:45.871Z,1004.01
2018-09-17T08:26:45.793Z,1002.38
2018-09-17T08:27:45.895Z,1001.53
2018-09-17T08:28:45.914Z,999.85
2018-09-17T08:29:45.844Z,997.98
2018-09-17T08:30:45.837Z,994.96
2018-09-17T08:31:45.820Z,991.59
2018-09-17T08:32:45.784Z,989.1
2018-09-17T08:33:45.769Z,986.57
2018-09-17T08:34:45.775Z,985.58
2018-09-17T08:35:45.782Z,984.79
2018-09-17T08:36:46.256Z,983.39
2018-09-17T08:37:45.833Z,980.99
2018-09-17T08:38:47.606Z,978.03
2018-09-17T08:39:46.322Z,973.82
2018-09-17T08:40:45.905Z,969.68
2018-09-17T08:41:45.814Z,966.71
2018-09-17T08:42:45.824Z,963.45
2018-09-17T08:43:45.833Z,959.27
2018-09-17T08:44:45.802Z,956.64
2018-09-17T08:45:45.816Z,953.82
2018-09-17T08:46:45.950Z,950.74
2018-09-17T08:47:46.257Z,948.4
2018-09-17T08:48:45.827Z,946.15
2018-09-17T08:49:45.877Z,943.05
2018-09-17T08:50:46.081Z,939.98
2018-09-17T08:51:45.837Z,938.48
2018-09-17T08:52:46.023Z,936.26
2018-09-17T08:53:45.947Z,933.26
2018-09-17T08:54:45.866Z,929.08
2018-09-17T08:55:45.828Z,925.43
2018-09-17T08:56:45.839Z,921.01
2018-09-17T08:57:47.541Z,916.42
2018-09-17T08:58:45.949Z,913.23
2018-09-17T08:59:46.063Z,909.33
2018-09-17T09:00:46.003Z,905.36
2018-09-17T09:01:45.853Z,900.75
2018-09-17T09:02:45.836Z,895.82
2018-09-17T09:03:45.860Z,891.36
2018-09-17T09:04:45.895Z,886.22
2018-09-17T09:05:45.837Z,881.88
2018-09-17T09:06:45.848Z,877.78
2018-09-17T09:07:45.849Z,872.76
2018-09-17T09:08:45.859Z,867.69
2018-09-17T09:09:45.862Z,862.15
2018-09-17T09:10:45.854Z,856.75
2018-09-17T09:11:45.849Z,851.54
2018-09-17T09:12:45.868Z,846.82
2018-09-17T09:13:45.837Z,843.05
2018-09-17T09:14:45.885Z,839.56
2018-09-17T09:15:45.890Z,837.57
2018-09-17T09:16:45.929Z,835.19
2018-09-17T09:17:45.887Z,831.64
2018-09-17T09:18:45.948Z,828.01
2018-09-17T09:19:45.862Z,823.86
2018-09-17T09:20:45.894Z,819.97
2018-09-17T09:21:45.897Z,816.34
2018-09-17T09:22:45.871Z,813.16
2018-09-17T09:23:45.878Z,810.31
2018-09-17T09:24:45.945Z,807.84
2018-09-17T09:25:45.892Z,804.85
2018-09-17T09:26:45.891Z,802.3
2018-09-17T09:27:45.885Z,800.78
2018-09-17T09:28:45.876Z,799.91
2018-09-17T09:29:45.899Z,799.48
2018-09-17T09:30:45.891Z,798.55
2018-09-17T09:31:45.903Z,796.27
2018-09-17T09:32:45.907Z,793.72
2018-09-17T09:33:45.948Z,792.92
2018-09-17T09:34:45.873Z,792.61
2018-09-17T09:35:45.922Z,791.57
2018-09-17T09:38:06.249Z,785.3
2018-09-17T09:39:06.109Z,782.54
2018-09-17T09:40:06.089Z,779.03
2018-09-17T09:41:06.103Z,775.47
2018-09-17T09:42:06.098Z,773.29
2018-09-17T09:43:06.118Z,771.12
2018-09-17T09:44:06.089Z,769.57
2018-09-17T09:45:06.090Z,767.55
2018-09-17T09:46:06.128Z,765.99
2018-09-17T09:47:06.102Z,764.73
2018-09-17T09:48:06.104Z,762.46
2018-09-17T09:49:06.124Z,759.51
2018-09-17T09:50:06.116Z,756.94
2018-09-17T09:51:06.237Z,752.65
2018-09-17T09:52:06.133Z,749.14
2018-09-17T09:53:06.100Z,745.72
2018-09-17T09:54:06.113Z,742.34
2018-09-17T09:55:06.117Z,739.1
2018-09-17T09:56:06.119Z,735.68
2018-09-17T09:57:06.104Z,731.75
2018-09-17T09:58:06.131Z,728.78
2018-09-17T09:59:06.117Z,725.47
2018-09-17T10:00:06.107Z,723.82
2018-09-17T10:01:06.535Z,725.42
2018-09-17T10:02:06.143Z,731.82
2018-09-17T10:03:06.139Z,740.3
2018-09-17T10:04:06.142Z,748.8
2018-09-17T10:05:06.199Z,757.89
2018-09-17T10:06:06.139Z,762.27
2018-09-17T10:07:06.135Z,766.68
2018-09-17T10:08:06.145Z,768.68
2018-09-17T10:09:06.136Z,771.47
2018-09-17T10:10:06.216Z,776.13
2018-09-17T10:11:06.152Z,780.73
2018-09-17T10:12:06.155Z,783.76
2018-09-17T10:13:06.131Z,786.54
2018-09-17T10:14:06.169Z,790.82
2018-09-17T10:15:06.146Z,794.57
2018-09-17T10:16:06.155Z,796.82
2018-09-17T10:17:06.157Z,797.1
2018-09-17T10:18:06.171Z,795.33
2018-09-17T10:19:06.152Z,792.11
2018-09-17T10:20:06.149Z,786.2
2018-09-17T10:21:06.218Z,780.23
2018-09-17T10:22:06.161Z,773.74
2018-09-17T10:23:06.152Z,769.84
2018-09-17T10:24:06.342Z,767
2018-09-17T10:25:06.176Z,763.55
2018-09-17T10:26:06.173Z,762.75
2018-09-17T10:27:06.168Z,761.83
2018-09-17T10:28:06.167Z,760.67
2018-09-17T10:29:06.202Z,760.19
2018-09-17T10:30:06.256Z,760.5
2018-09-17T10:31:06.184Z,757.7
2018-09-17T10:32:06.179Z,754.68
2018-09-17T10:33:06.173Z,750.06
2018-09-17T10:34:06.191Z,746.53
2018-09-17T10:35:06.172Z,740.75
2018-09-17T10:36:06.194Z,735.24
2018-09-17T10:37:06.189Z,728.9
2018-09-17T10:38:06.217Z,722.95
2018-09-17T10:39:06.296Z,718.81
2018-09-17T10:40:06.199Z,714.99
2018-09-17T10:41:06.191Z,711.49
2018-09-17T10:42:06.278Z,707.81
2018-09-17T10:43:06.190Z,702.98
2018-09-17T10:44:06.200Z,696.68
2018-09-17T10:45:06.523Z,694.3
2018-09-17T10:46:06.212Z,694.28
2018-09-17T10:47:06.214Z,694.81
2018-09-17T10:48:06.272Z,693.58
2018-09-17T10:49:06.208Z,690.69
2018-09-17T10:50:06.303Z,687.26
2018-09-17T10:51:06.309Z,684.32
2018-09-17T10:52:06.216Z,681.58
2018-09-17T10:53:06.372Z,679.01
2018-09-17T10:54:06.221Z,677.6
2018-09-17T10:55:06.252Z,676.9
2018-09-17T10:56:06.232Z,674.6
2018-09-17T10:57:06.211Z,672.08
2018-09-17T10:58:06.315Z,669.82
2018-09-17T10:59:06.224Z,670.01
2018-09-17T11:00:06.334Z,671.39
2018-09-17T11:01:06.244Z,671.39
2018-09-17T11:02:06.257Z,669.13
2018-09-17T11:03:06.222Z,665.27
2018-09-17T11:04:06.265Z,658.76
2018-09-17T11:05:08.070Z,653.58
2018-09-17T11:06:06.311Z,650.34
2018-09-17T11:07:06.238Z,647.82
2018-09-17T11:08:06.309Z,646.72
2018-09-17T11:09:06.257Z,645.09
2018-09-17T11:10:06.271Z,645.81
2018-09-17T11:11:06.269Z,645.43
2018-09-17T11:12:06.240Z,645.61
2018-09-17T11:16:34.662Z,641.83
2018-09-17T11:17:34.663Z,642.69
2018-09-17T11:18:34.711Z,645.77
2018-09-17T11:19:34.664Z,648.09
2018-09-17T11:20:34.684Z,650.54
2018-09-17T11:21:34.661Z,652.37
2018-09-17T11:22:34.671Z,654.99
2018-09-17T11:23:34.685Z,658.15
2018-09-17T11:24:34.663Z,661.49
2018-09-17T11:25:34.672Z,666.21
2018-09-17T11:26:34.729Z,669.54
2018-09-17T11:27:34.678Z,670.41
2018-09-17T11:28:34.686Z,669.35
2018-09-17T11:29:34.684Z,668.25
2018-09-17T11:30:34.704Z,663.55
2018-09-17T11:31:34.703Z,659.13
2018-09-17T11:32:34.721Z,653.13
2018-09-17T11:33:34.706Z,647.57
2018-09-17T11:38:04.805Z,636.87
2018-09-17T11:39:04.784Z,635.61
2018-09-17T11:40:04.788Z,635.25
2018-09-17T11:41:04.798Z,634.67
2018-09-17T11:42:04.771Z,636.63
2018-09-17T11:43:04.846Z,636.1
2018-09-17T11:44:04.791Z,634.45
2018-09-17T11:45:04.790Z,631.15
2018-09-17T11:46:04.790Z,627.49
2018-09-17T11:47:04.802Z,623.12
2018-09-17T11:48:04.881Z,617.96
2018-09-17T11:49:04.776Z,615.96
2018-09-17T11:50:04.787Z,622.38
2018-09-17T11:56:43.987Z,639.01
2018-09-17T11:57:43.979Z,638.85
2018-09-17T11:58:44.000Z,639.88
2018-09-17T11:59:43.996Z,639.33
2018-09-17T12:00:43.979Z,638.26
2018-09-17T12:01:44.051Z,637.33
2018-09-17T12:02:43.994Z,635.14
2018-09-17T12:03:43.998Z,633.13
2018-09-17T12:04:43.989Z,632.42
2018-09-17T12:05:43.995Z,633.11
2018-09-17T12:06:44.004Z,634.55
2018-09-17T12:07:44.006Z,635.29
2018-09-17T12:08:43.990Z,637.24
2018-09-17T12:09:43.992Z,637.42
2018-09-17T12:10:44.006Z,637.42
2018-09-17T12:11:44.012Z,638.08
2018-09-17T12:12:44.009Z,639.9
2018-09-17T12:13:44.019Z,643.7
2018-09-17T12:14:44.039Z,646.35
2018-09-17T12:15:44.136Z,649.56
2018-09-17T12:16:44.003Z,650.77
2018-09-17T12:17:44.005Z,651.48
2018-09-17T12:18:44.017Z,650.07
2018-09-17T12:19:44.017Z,649.16
2018-09-17T12:20:44.091Z,646.12
2018-09-17T12:21:44.041Z,643.4
2018-09-17T12:22:44.035Z,643.25
2018-09-17T12:23:44.031Z,646.09
2018-09-17T12:24:44.049Z,650.05
2018-09-17T12:25:44.038Z,651.83
2018-09-17T12:26:44.043Z,651.14
2018-09-17T12:27:44.039Z,649.46
2018-09-17T12:28:44.047Z,646.09
2018-09-17T12:29:44.036Z,641.62
2018-09-17T12:30:44.063Z,636.16
2018-09-17T12:31:44.077Z,629.79
2018-09-17T12:32:44.045Z,625.21
2018-09-17T12:33:44.060Z,619.49
2018-09-17T12:34:44.080Z,611.76
2018-09-17T12:35:44.070Z,606.32
2018-09-17T12:36:44.046Z,604.26
2018-09-17T12:37:44.090Z,605.93
2018-09-17T12:38:44.052Z,607.78
2018-09-17T12:39:44.065Z,607.18
2018-09-17T12:40:44.092Z,606.46
2018-09-17T12:41:44.120Z,606.63
2018-09-17T12:42:44.066Z,607.68
2018-09-17T12:43:44.077Z,609.78
2018-09-17T12:44:44.088Z,614.24
2018-09-17T12:45:44.187Z,618.05
2018-09-17T12:46:44.101Z,621.36
2018-09-17T12:47:44.101Z,625.73
2018-09-17T12:48:44.091Z,627.94
2018-09-17T12:49:44.116Z,631.02
2018-09-17T12:50:44.073Z,632.52
2018-09-17T12:51:44.109Z,632.83
2018-09-17T12:52:44.101Z,634.95
2018-09-17T12:53:44.113Z,635.48
2018-09-17T12:54:44.117Z,633.84
2018-09-17T12:55:44.079Z,631.64
2018-09-17T12:56:44.086Z,626.91
2018-09-17T12:57:44.096Z,621.92
2018-09-17T12:58:44.207Z,616.61
2018-09-17T12:59:44.083Z,615.29
2018-09-17T13:00:44.090Z,614.94
2018-09-17T13:01:44.103Z,614.72
2018-09-17T13:02:44.107Z,615.46
2018-09-17T13:03:44.114Z,618.59
2018-09-17T13:10:24.558Z,629.28
2018-09-17T13:11:24.532Z,626.75
2018-09-17T13:12:24.548Z,623.43
2018-09-17T13:13:24.547Z,621.24
2018-09-17T13:14:24.553Z,620.16
2018-09-17T13:15:24.558Z,620.5
2018-09-17T13:16:24.545Z,619.59
2018-09-17T13:17:24.613Z,619.75
2018-09-17T13:18:24.547Z,618.85
2018-09-17T13:19:24.575Z,618.3
2018-09-17T13:20:24.603Z,616.6
2018-09-17T13:21:24.570Z,613.86
2018-09-17T13:22:24.573Z,609.94
2018-09-17T13:23:24.571Z,606.23
2018-09-17T13:24:24.588Z,601.91